Time;durP1;ratioP1;P1;durP2;ratioP2;P2;SDS_P1;SDS_P2;PMS_P1;PMS_P2;Temp;Humidity;BMP_temperature;BMP_pressure;BME280_temperature;BME280_humidity;BME280_pressure;Samples;Min_cycle;Max_cycle;Signal;HPM_P1;HPM_P2
2022/07/10 00:00:32;;;;;;;4.78;1.95;;;13.50;99.90;;;;;;5070761;28;20491;-24
2022/07/10 00:02:58;;;;;;;6.47;2.35;;;13.40;99.90;;;;;;5071121;28;20094;-24
2022/07/10 00:05:25;;;;;;;5.53;2.35;;;13.40;99.90;;;;;;5071092;28;20040;-25
2022/07/10 00:07:51;;;;;;;4.70;2.33;;;13.30;99.90;;;;;;5070655;28;20036;-24
2022/07/10 00:10:18;;;;;;;5.10;1.63;;;13.30;99.90;;;;;;5071108;28;20096;-24
2022/07/10 00:12:46;;;;;;;5.88;2.42;;;13.30;99.90;;;;;;5070788;28;20032;-25
2022/07/10 00:15:15;;;;;;;6.30;1.77;;;13.40;99.90;;;;;;5052876;28;20055;-25
2022/07/10 00:17:41;;;;;;;5.13;2.45;;;13.40;99.90;;;;;;5052900;28;20045;-25
2022/07/10 00:20:08;;;;;;;6.65;2.30;;;13.40;99.90;;;;;;5051764;28;20068;-24
2022/07/10 00:22:40;;;;;;;5.55;1.80;;;13.30;99.90;;;;;;5050744;28;20092;-24
2022/07/10 00:25:07;;;;;;;8.60;2.50;;;13.30;99.90;;;;;;5050562;28;20706;-24
2022/07/10 00:27:33;;;;;;;4.60;1.80;;;13.30;99.90;;;;;;5050457;28;20033;-25
2022/07/10 00:29:59;;;;;;;6.78;2.38;;;13.20;99.90;;;;;;5050358;28;20049;-23
2022/07/10 00:32:25;;;;;;;6.45;2.30;;;13.20;99.90;;;;;;5050602;28;20072;-25
2022/07/10 00:34:51;;;;;;;8.45;2.63;;;13.10;99.90;;;;;;5050428;28;20056;-24
2022/07/10 00:37:17;;;;;;;7.07;2.13;;;13.10;99.90;;;;;;5044797;28;20043;-24
2022/07/10 00:39:43;;;;;;;6.07;2.20;;;13.10;99.90;;;;;;5070373;28;20221;-24
2022/07/10 00:42:13;;;;;;;8.15;2.75;;;13.20;99.90;;;;;;5052646;28;20094;-25
2022/07/10 00:44:40;;;;;;;5.88;2.10;;;13.20;99.90;;;;;;5070551;28;20040;-24
2022/07/10 00:47:08;;;;;;;5.32;2.10;;;13.20;99.90;;;;;;5070388;28;20097;-24
2022/07/10 00:49:35;;;;;;;7.15;2.00;;;13.20;99.90;;;;;;5070615;28;20040;-24
2022/07/10 00:52:05;;;;;;;6.80;2.25;;;13.20;99.90;;;;;;5070054;28;20177;-24
2022/07/10 00:54:32;;;;;;;8.60;2.00;;;13.20;99.90;;;;;;5051788;28;20041;-24
2022/07/10 00:56:59;;;;;;;6.95;1.80;;;13.20;99.90;;;;;;5052205;28;20049;-25
2022/07/10 00:59:25;;;;;;;8.20;2.53;;;13.20;99.90;;;;;;5068376;28;20117;-23
2022/07/10 01:01:52;;;;;;;5.40;1.77;;;13.20;99.90;;;;;;5070313;28;20535;-23
2022/07/10 01:04:18;;;;;;;5.85;1.88;;;13.20;99.90;;;;;;5052156;28;20126;-24
2022/07/10 01:06:44;;;;;;;4.28;1.67;;;13.20;99.90;;;;;;5070162;28;20450;-24
2022/07/10 01:09:11;;;;;;;8.13;1.70;;;13.20;99.90;;;;;;5050877;28;20108;-26
2022/07/10 01:11:37;;;;;;;7.78;2.03;;;13.20;99.90;;;;;;5070867;28;20040;-25
2022/07/10 01:14:04;;;;;;;4.05;2.03;;;13.30;99.90;;;;;;5073462;28;20232;-24
2022/07/10 01:16:31;;;;;;;5.07;1.60;;;13.30;99.90;;;;;;5073431;28;20079;-22
2022/07/10 01:18:58;;;;;;;6.65;1.92;;;13.30;99.90;;;;;;5073732;28;20115;-24
2022/07/10 01:21:27;;;;;;;6.95;1.77;;;13.30;99.90;;;;;;5072884;28;20036;-24
2022/07/10 01:23:53;;;;;;;6.57;1.83;;;13.40;99.90;;;;;;5073519;28;20076;-24
2022/07/10 01:26:21;;;;;;;5.72;1.90;;;13.40;99.90;;;;;;5073425;28;20041;-24
2022/07/10 01:28:51;;;;;;;9.38;2.28;;;13.40;99.90;;;;;;5055274;28;20036;-25
2022/07/10 01:31:18;;;;;;;7.00;1.95;;;13.40;99.90;;;;;;5073500;28;20072;-24
2022/07/10 01:33:45;;;;;;;7.90;1.90;;;13.40;99.90;;;;;;5073116;28;20039;-24
2022/07/10 01:36:11;;;;;;;7.28;1.77;;;13.30;99.90;;;;;;5071270;28;20044;-23
2022/07/10 01:38:37;;;;;;;8.43;2.20;;;13.30;99.90;;;;;;5072987;28;20079;-24
2022/07/10 01:41:03;;;;;;;5.93;1.90;;;13.30;99.90;;;;;;5073271;28;20080;-24
2022/07/10 01:43:29;;;;;;;3.28;1.98;;;13.20;99.90;;;;;;5054753;28;20478;-24
2022/07/10 01:45:54;;;;;;;5.70;1.80;;;13.30;99.90;;;;;;5073162;28;20402;-23
2022/07/10 01:48:20;;;;;;;8.40;2.35;;;13.30;99.90;;;;;;5073151;28;20067;-26
2022/07/10 01:50:46;;;;;;;5.90;2.00;;;13.30;99.90;;;;;;5073007;28;20201;-24
2022/07/10 01:53:11;;;;;;;6.50;2.00;;;13.40;99.90;;;;;;5073305;28;20041;-26
2022/07/10 01:55:37;;;;;;;5.22;1.65;;;13.40;99.90;;;;;;5072886;28;20161;-24
2022/07/10 01:58:03;;;;;;;6.78;2.35;;;13.40;99.90;;;;;;5073111;28;20487;-23
2022/07/10 02:00:29;;;;;;;4.78;1.73;;;13.30;99.90;;;;;;5072903;28;20040;-24
2022/07/10 02:05:39;;;;;;;7.80;1.75;;;13.20;99.90;;;;;;5054074;28;20044;-29
2022/07/10 02:08:06;;;;;;;7.85;2.00;;;13.20;99.90;;;;;;5062460;28;20059;-29
2022/07/10 02:10:32;;;;;;;5.15;1.80;;;13.10;99.90;;;;;;5052825;28;20033;-28
2022/07/10 02:12:58;;;;;;;5.13;1.83;;;13.10;99.90;;;;;;5072091;28;20513;-24
2022/07/10 02:15:23;;;;;;;6.30;1.83;;;13.00;99.90;;;;;;5072920;28;20475;-24
2022/07/10 02:17:49;;;;;;;6.32;1.90;;;13.00;99.90;;;;;;5072545;28;20037;-29
2022/07/10 02:20:15;;;;;;;7.28;2.08;;;13.00;99.90;;;;;;5054442;28;20568;-24
2022/07/10 02:22:42;;;;;;;10.55;2.38;;;12.90;99.90;;;;;;5072195;28;20048;-24
2022/07/10 02:25:08;;;;;;;9.48;1.92;;;12.80;99.90;;;;;;5064600;28;20388;-30
2022/07/10 02:27:34;;;;;;;5.63;1.88;;;12.80;99.90;;;;;;5064654;28;20552;-27
2022/07/10 02:30:00;;;;;;;8.85;2.00;;;12.80;99.90;;;;;;5045410;28;20038;-28
2022/07/10 02:32:26;;;;;;;8.07;2.10;;;12.70;99.90;;;;;;5055662;28;20041;-27
2022/07/10 02:34:51;;;;;;;5.53;2.20;;;12.70;99.90;;;;;;5062620;28;20467;-27
2022/07/10 02:37:17;;;;;;;7.40;2.00;;;12.70;99.90;;;;;;5061109;28;20032;-29
2022/07/10 02:39:43;;;;;;;6.75;2.00;;;12.60;99.90;;;;;;5050783;28;20394;-23
2022/07/10 02:42:08;;;;;;;6.05;2.13;;;12.60;99.90;;;;;;5064459;28;20040;-24
2022/07/10 02:44:34;;;;;;;6.75;1.85;;;12.50;99.90;;;;;;5054578;28;20097;-26
2022/07/10 02:47:00;;;;;;;7.85;2.40;;;12.50;99.90;;;;;;5072298;28;20046;-24
2022/07/10 02:49:26;;;;;;;6.45;1.70;;;12.50;99.90;;;;;;5072299;28;20048;-23
2022/07/10 02:51:52;;;;;;;10.10;1.90;;;12.40;99.90;;;;;;5071918;28;20048;-24
2022/07/10 02:54:18;;;;;;;4.82;2.13;;;12.40;99.90;;;;;;5071918;28;20055;-24
2022/07/10 02:56:44;;;;;;;8.23;1.83;;;12.40;99.90;;;;;;5054242;28;20036;-24
2022/07/10 02:59:09;;;;;;;8.30;1.90;;;12.30;99.90;;;;;;5064151;28;20345;-24
2022/07/10 03:01:35;;;;;;;8.60;2.22;;;12.30;99.90;;;;;;5071941;28;20032;-24
2022/07/10 03:04:01;;;;;;;7.65;1.80;;;12.30;99.90;;;;;;5071345;28;20048;-24
2022/07/10 03:06:27;;;;;;;7.10;2.17;;;12.30;99.90;;;;;;5071512;28;20054;-23
2022/07/10 03:08:53;;;;;;;10.25;2.40;;;12.30;99.90;;;;;;5071673;28;20059;-26
2022/07/10 03:11:19;;;;;;;3.53;1.60;;;12.20;99.90;;;;;;5037183;28;20036;-24
2022/07/10 03:13:44;;;;;;;5.35;2.08;;;12.20;99.90;;;;;;5071840;28;20050;-23
2022/07/10 03:16:10;;;;;;;4.88;1.85;;;12.20;99.90;;;;;;5071566;28;20040;-24
2022/07/10 03:18:36;;;;;;;4.78;1.90;;;12.20;99.90;;;;;;5071577;28;20119;-23
2022/07/10 03:21:02;;;;;;;5.63;1.80;;;12.20;99.90;;;;;;5071640;28;20197;-26
2022/07/10 03:23:28;;;;;;;8.68;2.03;;;12.10;99.90;;;;;;5071256;28;20123;-25
2022/07/10 03:25:53;;;;;;;8.55;2.55;;;12.20;99.90;;;;;;5071484;28;20120;-24
2022/07/10 03:28:19;;;;;;;4.15;1.90;;;12.20;99.90;;;;;;5071246;28;20544;-24
2022/07/10 03:30:44;;;;;;;6.80;1.80;;;12.10;99.90;;;;;;5071017;28;20256;-24
2022/07/10 03:33:10;;;;;;;6.68;1.95;;;12.10;99.90;;;;;;5053038;28;20032;-24
2022/07/10 03:35:36;;;;;;;4.55;2.00;;;12.10;99.90;;;;;;5071399;28;20072;-24
2022/07/10 03:38:02;;;;;;;9.13;2.47;;;12.00;99.90;;;;;;5053193;28;20044;-25
2022/07/10 03:40:28;;;;;;;6.07;1.85;;;12.10;99.90;;;;;;5070991;28;20047;-24
2022/07/10 03:42:54;;;;;;;8.80;2.03;;;12.10;99.90;;;;;;5069245;28;20040;-27
2022/07/10 03:45:20;;;;;;;4.57;1.95;;;12.00;99.90;;;;;;5058474;28;20033;-30
2022/07/10 03:47:46;;;;;;;9.07;2.10;;;12.00;99.90;;;;;;5066293;28;20040;-27
2022/07/10 03:50:11;;;;;;;6.10;1.80;;;12.10;99.90;;;;;;5066403;28;20103;-32
2022/07/10 03:52:37;;;;;;;5.50;2.10;;;12.10;99.90;;;;;;5063919;28;20047;-31
2022/07/10 03:55:03;;;;;;;7.53;2.00;;;12.20;99.90;;;;;;5064948;28;20395;-28
2022/07/10 04:00:14;;;;;;;9.48;1.75;;;12.40;99.90;;;;;;5064313;28;20111;-29
2022/07/10 04:02:39;;;;;;;10.05;1.90;;;12.40;99.90;;;;;;5057823;28;20404;-29
2022/07/10 04:05:06;;;;;;;4.18;2.50;;;12.50;99.90;;;;;;5066036;28;20063;-27
2022/07/10 04:07:32;;;;;;;5.43;1.67;;;12.60;99.90;;;;;;5063465;28;20051;-28
2022/07/10 04:09:58;;;;;;;5.25;1.88;;;12.70;99.90;;;;;;5065122;28;20040;-29
2022/07/10 04:12:23;;;;;;;4.90;1.77;;;12.80;99.90;;;;;;5061028;28;20040;-30
2022/07/10 04:14:51;;;;;;;10.93;1.95;;;12.80;99.90;;;;;;5063079;28;20032;-27
2022/07/10 04:17:18;;;;;;;6.50;2.00;;;12.80;99.90;;;;;;5055544;28;20069;-30
2022/07/10 04:19:44;;;;;;;7.75;1.80;;;12.90;99.90;;;;;;5056268;28;20036;-29
2022/07/10 04:22:10;;;;;;;8.23;1.60;;;12.90;99.90;;;;;;5058898;28;20075;-29
2022/07/10 04:24:35;;;;;;;5.80;1.70;;;13.00;99.90;;;;;;5068308;28;20072;-30
2022/07/10 04:27:02;;;;;;;5.63;1.70;;;13.00;99.90;;;;;;5062788;28;20063;-30
2022/07/10 04:29:27;;;;;;;5.55;2.15;;;13.10;99.90;;;;;;5063312;28;20048;-29
2022/07/10 04:31:54;;;;;;;7.70;2.15;;;13.10;99.90;;;;;;5060296;28;20522;-30
2022/07/10 04:34:19;;;;;;;8.07;1.80;;;13.20;99.90;;;;;;5065465;28;20036;-29
2022/07/10 04:36:45;;;;;;;7.00;1.90;;;13.20;99.90;;;;;;5069451;28;20111;-30
2022/07/10 04:39:11;;;;;;;5.38;1.75;;;13.20;99.90;;;;;;5063496;28;20033;-30
2022/07/10 04:41:37;;;;;;;5.90;2.15;;;13.30;99.90;;;;;;5069464;28;20044;-30
2022/07/10 04:44:03;;;;;;;5.30;1.77;;;13.30;99.90;;;;;;5065999;28;20036;-31
2022/07/10 04:46:29;;;;;;;4.97;1.92;;;13.30;99.90;;;;;;5044280;28;20511;-30
2022/07/10 04:48:54;;;;;;;6.05;1.58;;;13.40;99.90;;;;;;5053232;28;20040;-30
2022/07/10 04:51:20;;;;;;;7.93;1.83;;;13.50;99.90;;;;;;5049735;28;20123;-29
2022/07/10 04:53:46;;;;;;;8.38;2.00;;;13.50;99.90;;;;;;5070844;28;20040;-29
2022/07/10 04:56:11;;;;;;;8.73;1.70;;;13.60;99.90;;;;;;5057070;28;20051;-29
2022/07/10 04:58:37;;;;;;;5.47;1.50;;;13.60;99.90;;;;;;5061404;28;20404;-30
2022/07/10 05:01:03;;;;;;;6.80;2.13;;;13.60;99.90;;;;;;5058544;28;20036;-30
2022/07/10 05:03:29;;;;;;;11.32;2.35;;;13.70;99.90;;;;;;5071783;28;20119;-30
2022/07/10 05:05:54;;;;;;;8.63;2.13;;;13.70;99.90;;;;;;5065621;28;20483;-29
2022/07/10 05:08:20;;;;;;;4.18;1.77;;;13.70;99.90;;;;;;5058877;28;20491;-30
2022/07/10 05:10:46;;;;;;;3.75;1.35;;;13.80;99.90;;;;;;5066552;28;20029;-30
2022/07/10 05:13:12;;;;;;;5.63;2.00;;;13.80;99.90;;;;;;5070322;28;20032;-31
2022/07/10 05:15:38;;;;;;;6.40;1.98;;;13.90;99.90;;;;;;5069719;28;20047;-30
2022/07/10 05:18:04;;;;;;;5.40;1.77;;;13.90;99.90;;;;;;5070256;28;20032;-28
2022/07/10 05:20:30;;;;;;;7.25;1.63;;;14.00;99.90;;;;;;5049784;28;20088;-33
2022/07/10 05:22:56;;;;;;;4.68;1.50;;;14.00;99.90;;;;;;5062302;28;20040;-29
2022/07/10 05:25:22;;;;;;;5.45;1.42;;;14.10;99.90;;;;;;5071122;28;20048;-30
2022/07/10 05:27:48;;;;;;;7.47;1.63;;;14.20;99.90;;;;;;5053877;28;20041;-25
2022/07/10 05:30:14;;;;;;;5.45;1.70;;;14.30;99.90;;;;;;5073320;28;20052;-24
2022/07/10 05:32:46;;;;;;;5.15;2.10;;;14.40;99.90;;;;;;5073519;28;20445;-24
2022/07/10 05:35:15;;;;;;;5.20;1.88;;;14.50;99.90;;;;;;5054724;28;20052;-26
2022/07/10 05:37:41;;;;;;;6.25;1.67;;;14.60;99.90;;;;;;5072776;28;20153;-24
2022/07/10 05:40:07;;;;;;;8.27;1.90;;;14.70;99.90;;;;;;5058935;28;20044;-25
2022/07/10 05:42:34;;;;;;;5.38;1.98;;;14.80;99.90;;;;;;5055080;28;20538;-25
2022/07/10 05:45:00;;;;;;;6.63;1.90;;;14.80;99.90;;;;;;5072298;28;20044;-25
2022/07/10 05:47:26;;;;;;;5.95;1.77;;;14.80;99.90;;;;;;5072977;28;20043;-25
2022/07/10 05:49:51;;;;;;;8.63;2.63;;;14.80;99.90;;;;;;5073142;28;20455;-25
2022/07/10 05:52:17;;;;;;;5.95;2.03;;;14.80;99.90;;;;;;5073059;28;20483;-27
2022/07/10 05:54:43;;;;;;;7.25;2.15;;;14.80;99.90;;;;;;5073110;28;20037;-25
2022/07/10 05:57:09;;;;;;;3.70;1.90;;;14.80;99.90;;;;;;5072469;28;20120;-26
2022/07/10 05:59:35;;;;;;;7.65;2.70;;;14.90;99.90;;;;;;5072661;28;20112;-26
2022/07/10 06:02:04;;;;;;;8.20;2.53;;;14.90;99.90;;;;;;5054767;28;20076;-25
2022/07/10 06:04:30;;;;;;;6.93;1.92;;;15.00;99.90;;;;;;5064599;28;20036;-26
2022/07/10 06:06:56;;;;;;;7.95;2.70;;;15.00;99.90;;;;;;5072887;28;20032;-26
2022/07/10 06:09:21;;;;;;;7.80;2.08;;;15.10;99.90;;;;;;5071822;28;20044;-26
2022/07/10 06:11:49;;;;;;;8.15;2.30;;;15.20;99.90;;;;;;5072824;28;20039;-25
2022/07/10 06:14:15;;;;;;;7.70;2.65;;;15.20;99.90;;;;;;5072593;28;20518;-25
2022/07/10 06:16:40;;;;;;;9.18;1.83;;;15.20;99.90;;;;;;5072714;28;20037;-25
2022/07/10 06:19:06;;;;;;;6.03;2.13;;;15.30;99.90;;;;;;5070336;28;20052;-25
2022/07/10 06:21:32;;;;;;;8.63;2.30;;;15.30;99.90;;;;;;5052664;28;20037;-25
2022/07/10 06:23:58;;;;;;;6.10;2.33;;;15.40;99.90;;;;;;5022758;28;20120;-27
2022/07/10 06:26:24;;;;;;;5.57;2.35;;;15.40;99.90;;;;;;5072144;28;20138;-26
2022/07/10 06:28:50;;;;;;;8.02;2.53;;;15.50;99.90;;;;;;5071344;28;20525;-25
2022/07/10 06:31:16;;;;;;;7.47;2.88;;;15.50;99.90;;;;;;5053724;28;20032;-28
2022/07/10 06:33:42;;;;;;;7.72;2.88;;;15.50;99.90;;;;;;5071695;28;20048;-25
2022/07/10 06:36:08;;;;;;;5.72;2.10;;;15.50;99.90;;;;;;5071837;28;20072;-26
2022/07/10 06:38:36;;;;;;;8.40;2.60;;;15.50;99.90;;;;;;5072057;28;20033;-27
2022/07/10 06:41:02;;;;;;;10.07;2.55;;;15.50;99.90;;;;;;5072226;28;20114;-26
2022/07/10 06:43:27;;;;;;;8.68;2.70;;;15.50;99.90;;;;;;5053701;28;20515;-25
2022/07/10 06:45:53;;;;;;;8.93;2.30;;;15.50;99.90;;;;;;5070871;28;20076;-26
2022/07/10 06:48:20;;;;;;;7.47;2.35;;;15.50;99.90;;;;;;5071008;28;20044;-25
2022/07/10 06:50:46;;;;;;;7.45;2.72;;;15.50;99.90;;;;;;5070973;28;20048;-26
2022/07/10 06:53:11;;;;;;;8.27;2.70;;;15.60;99.90;;;;;;5057711;28;20041;-30
2022/07/10 06:55:38;;;;;;;7.22;2.75;;;15.50;99.90;;;;;;5048257;28;20483;-28
2022/07/10 06:58:03;;;;;;;9.35;3.63;;;15.60;99.90;;;;;;5060791;28;20490;-31
2022/07/10 07:00:29;;;;;;;8.90;3.08;;;15.70;99.90;;;;;;5059955;28;20032;-29
2022/07/10 07:02:55;;;;;;;6.82;2.55;;;15.80;99.90;;;;;;5065607;28;20025;-30
2022/07/10 07:05:21;;;;;;;8.45;2.50;;;15.90;99.90;;;;;;5068576;28;20044;-31
2022/07/10 07:07:47;;;;;;;9.18;2.72;;;16.00;99.90;;;;;;5064323;28;20040;-29
2022/07/10 07:10:12;;;;;;;7.15;2.33;;;16.10;99.90;;;;;;5047388;28;20044;-32
2022/07/10 07:12:38;;;;;;;6.25;2.42;;;16.20;99.90;;;;;;5056365;28;20158;-31
2022/07/10 07:15:06;;;;;;;7.75;2.38;;;16.20;99.90;;;;;;5050644;28;20117;-31
2022/07/10 07:17:45;;;;;;;5.50;2.60;;;16.20;99.90;;;;;;5044208;28;20051;-29
2022/07/10 07:23:11;;;;;;;4.80;2.00;;;16.20;99.90;;;;;;5058763;28;20044;-30
2022/07/10 07:25:46;;;;;;;6.28;2.33;;;16.30;99.90;;;;;;5055431;28;20036;-30
2022/07/10 07:28:15;;;;;;;6.28;2.03;;;16.50;99.90;;;;;;5061415;28;20557;-33
2022/07/10 07:30:42;;;;;;;4.07;2.15;;;16.60;99.90;;;;;;5066497;28;20111;-31
2022/07/10 07:33:08;;;;;;;5.22;1.75;;;16.70;99.90;;;;;;5047998;28;20051;-31
2022/07/10 07:35:34;;;;;;;6.00;2.08;;;16.80;99.90;;;;;;5068050;28;20487;-30
2022/07/10 07:38:02;;;;;;;5.15;1.70;;;16.90;99.90;;;;;;5051269;28;20033;-29
2022/07/10 07:40:30;;;;;;;5.70;1.40;;;17.00;99.90;;;;;;5064461;28;20450;-30
2022/07/10 07:42:56;;;;;;;5.95;1.88;;;17.10;99.90;;;;;;5037583;28;20041;-28
2022/07/10 07:45:22;;;;;;;5.03;1.50;;;17.20;99.90;;;;;;5061886;28;20098;-34
2022/07/10 07:47:49;;;;;;;5.38;1.73;;;17.30;99.90;;;;;;5043798;28;20052;-32
2022/07/10 07:50:17;;;;;;;4.22;1.35;;;17.30;99.90;;;;;;5056212;28;20040;-29
2022/07/10 07:52:45;;;;;;;3.42;1.50;;;17.40;99.90;;;;;;5060243;28;20486;-30
2022/07/10 07:55:11;;;;;;;3.58;1.30;;;17.40;99.90;;;;;;5041413;28;20048;-32
2022/07/10 07:57:38;;;;;;;4.07;1.80;;;17.50;99.90;;;;;;5069763;28;20028;-34
2022/07/10 08:00:06;;;;;;;6.07;1.45;;;17.40;99.90;;;;;;5038511;28;20044;-27
2022/07/10 08:02:32;;;;;;;3.80;1.40;;;17.40;99.90;;;;;;5034217;28;20044;-30
2022/07/10 08:04:58;;;;;;;2.15;1.40;;;17.50;99.90;;;;;;5071038;28;20045;-25
2022/07/10 08:07:41;;;;;;;2.83;1.33;;;17.60;99.90;;;;;;5061298;28;20040;-28
2022/07/10 08:10:09;;;;;;;3.53;1.60;;;17.70;99.90;;;;;;5069414;28;20040;-29
2022/07/10 08:12:35;;;;;;;3.17;1.20;;;17.60;99.90;;;;;;5069020;28;20037;-29
2022/07/10 08:15:02;;;;;;;2.10;1.30;;;17.60;99.90;;;;;;5062859;28;20483;-28
2022/07/10 08:17:27;;;;;;;2.88;1.20;;;17.50;99.90;;;;;;5059164;28;20250;-29
2022/07/10 08:19:54;;;;;;;3.58;1.23;;;17.60;99.90;;;;;;5060355;28;20502;-29
2022/07/10 08:22:19;;;;;;;3.00;1.35;;;17.70;99.90;;;;;;5060060;28;20052;-29
2022/07/10 08:24:45;;;;;;;4.15;1.60;;;17.80;99.90;;;;;;5052338;28;20415;-29
2022/07/10 08:27:12;;;;;;;1.65;1.20;;;17.70;99.90;;;;;;5065344;28;20091;-30
2022/07/10 08:29:38;;;;;;;3.20;1.27;;;17.70;99.90;;;;;;5053349;28;20079;-30
2022/07/10 08:32:04;;;;;;;3.10;1.40;;;17.70;99.90;;;;;;5061270;28;20044;-29
2022/07/10 08:34:31;;;;;;;4.15;1.52;;;17.60;99.90;;;;;;5050434;28;20037;-30
2022/07/10 08:36:57;;;;;;;4.30;1.35;;;17.50;99.90;;;;;;5065112;28;20036;-29
2022/07/10 08:39:23;;;;;;;1.88;1.52;;;17.30;99.90;;;;;;5067674;28;20025;-30
2022/07/10 08:41:52;;;;;;;2.40;1.27;;;17.30;99.90;;;;;;5045506;28;20037;-29
2022/07/10 08:44:18;;;;;;;2.65;1.10;;;17.30;99.90;;;;;;5066637;28;20036;-30
2022/07/10 08:46:44;;;;;;;3.63;1.60;;;17.30;99.90;;;;;;5070453;28;20032;-30
2022/07/10 08:49:11;;;;;;;3.80;1.23;;;17.40;99.90;;;;;;5072726;28;20040;-27
2022/07/10 08:51:56;;;;;;;3.20;1.45;;;17.30;99.90;;;;;;5073694;28;20044;-27
2022/07/10 08:54:23;;;;;;;4.82;1.15;;;17.40;99.90;;;;;;5073535;28;20055;-27
2022/07/10 08:56:50;;;;;;;3.63;1.25;;;17.30;99.90;;;;;;5073777;28;20403;-26
2022/07/10 08:59:17;;;;;;;1.83;1.05;;;17.30;99.90;;;;;;5073716;28;20529;-27
2022/07/10 09:01:43;;;;;;;3.50;1.05;;;17.20;99.90;;;;;;5073426;28;20112;-27
2022/07/10 09:04:21;;;;;;;3.05;0.93;;;17.20;99.90;;;;;;5072576;28;20063;-26
2022/07/10 09:06:47;;;;;;;3.47;1.40;;;17.20;99.90;;;;;;5072642;28;20094;-27
2022/07/10 09:09:12;;;;;;;4.15;1.20;;;17.30;99.90;;;;;;5073965;28;20044;-27
2022/07/10 09:11:42;;;;;;;3.63;0.90;;;17.40;99.90;;;;;;5056006;28;20120;-27
2022/07/10 09:14:11;;;;;;;3.15;1.10;;;17.40;99.90;;;;;;5073393;28;20119;-26
2022/07/10 09:16:42;;;;;;;3.38;0.95;;;17.40;99.90;;;;;;5072148;28;20032;-27
2022/07/10 09:19:24;;;;;;;2.95;1.20;;;17.40;99.90;;;;;;5055314;28;20033;-28
2022/07/10 09:22:11;;;;;;;2.30;1.27;;;17.30;99.90;;;;;;5056019;28;20119;-26
2022/07/10 09:24:41;;;;;;;4.70;1.55;;;17.40;99.90;;;;;;5073222;28;20043;-27
2022/07/10 09:27:09;;;;;;;3.30;1.30;;;17.50;99.90;;;;;;5066430;28;20102;-33
2022/07/10 09:29:55;;;;;;;2.63;1.27;;;17.60;99.90;;;;;;5065540;28;20078;-31
2022/07/10 09:32:21;;;;;;;3.28;1.33;;;17.90;99.90;;;;;;5053606;28;20044;-28
2022/07/10 09:34:48;;;;;;;3.25;1.30;;;18.00;99.90;;;;;;5071854;28;20391;-26
2022/07/10 09:37:28;;;;;;;2.22;1.10;;;18.20;99.90;;;;;;5073382;28;20138;-25
2022/07/10 09:40:03;;;;;;;5.60;1.55;;;18.60;99.90;;;;;;5073180;28;20511;-26
2022/07/10 09:42:40;;;;;;;2.03;1.00;;;18.80;99.90;;;;;;5073622;28;20036;-26
2022/07/10 09:45:17;;;;;;;2.78;1.00;;;18.80;99.90;;;;;;5070389;28;20086;-32
2022/07/10 09:47:44;;;;;;;2.47;0.98;;;18.70;99.90;;;;;;5048725;28;20048;-30
2022/07/10 09:50:34;;;;;;;2.88;1.00;;;18.50;99.90;;;;;;5051724;28;20103;-27
2022/07/10 09:53:03;;;;;;;2.63;1.00;;;18.50;99.90;;;;;;5062953;28;20063;-26
2022/07/10 09:55:32;;;;;;;2.20;0.90;;;18.40;99.90;;;;;;5065366;28;20040;-34
2022/07/10 09:58:03;;;;;;;2.63;1.10;;;18.30;99.90;;;;;;5065726;28;20103;-26
2022/07/10 10:00:34;;;;;;;2.70;1.02;;;18.30;99.90;;;;;;5054828;28;20041;-25
2022/07/10 10:03:01;;;;;;;1.85;1.02;;;18.30;99.90;;;;;;5070600;28;20090;-30
2022/07/10 10:05:36;;;;;;;2.90;1.13;;;18.30;99.90;;;;;;5056807;28;20048;-29
2022/07/10 10:08:16;;;;;;;1.80;1.10;;;18.40;99.90;;;;;;5061407;28;20044;-33
2022/07/10 10:10:49;;;;;;;1.92;1.05;;;18.40;99.90;;;;;;5064807;28;20036;-31
2022/07/10 10:13:24;;;;;;;3.58;1.42;;;18.50;99.90;;;;;;5071527;28;20036;-30
2022/07/10 10:15:51;;;;;;;3.40;1.25;;;18.60;99.90;;;;;;5044888;28;20526;-31
2022/07/10 10:18:25;;;;;;;3.60;1.20;;;18.70;99.90;;;;;;5069597;28;20032;-30
2022/07/10 10:20:53;;;;;;;3.20;1.30;;;18.60;99.90;;;;;;5062986;28;20786;-31
2022/07/10 10:23:21;;;;;;;2.97;1.50;;;18.60;99.90;;;;;;5068346;28;20043;-29
2022/07/10 10:25:53;;;;;;;3.20;1.20;;;18.60;99.90;;;;;;5064774;28;20041;-32
2022/07/10 10:28:23;;;;;;;5.68;1.67;;;18.60;99.90;;;;;;5066617;28;20032;-30
2022/07/10 10:30:57;;;;;;;3.20;1.40;;;18.60;99.90;;;;;;5110842;23;20048;-86
2022/07/10 10:33:32;;;;;;;2.92;1.30;;;18.80;99.90;;;;;;5051115;28;20056;-87
2022/07/10 10:35:58;;;;;;;4.63;1.63;;;18.80;99.90;;;;;;5040638;28;20044;-87
2022/07/10 10:38:24;;;;;;;3.67;1.52;;;18.60;99.90;;;;;;5045488;28;20032;-86
2022/07/10 10:40:50;;;;;;;2.40;1.38;;;18.30;99.90;;;;;;5059713;28;20056;-84
2022/07/10 10:43:19;;;;;;;2.28;1.38;;;18.20;99.90;;;;;;5049110;28;20096;-86
2022/07/10 10:45:46;;;;;;;2.75;1.40;;;18.10;99.90;;;;;;5035573;28;20037;-86
2022/07/10 10:48:17;;;;;;;1.92;1.33;;;18.10;99.90;;;;;;5053292;28;20036;-84
2022/07/10 10:50:53;;;;;;;3.50;1.55;;;18.10;99.90;;;;;;5052854;28;20505;-87
2022/07/10 10:53:26;;;;;;;2.15;1.67;;;18.20;99.90;;;;;;5050498;28;20412;-87
2022/07/10 10:56:04;;;;;;;3.30;1.80;;;18.30;99.90;;;;;;5050750;28;20086;-86
2022/07/10 10:58:45;;;;;;;3.05;1.38;;;18.40;99.90;;;;;;5064313;28;20036;-86
2022/07/10 11:01:20;;;;;;;2.47;1.50;;;18.40;99.90;;;;;;5030247;28;20040;-87
2022/07/10 11:04:16;;;;;;;2.75;1.90;;;18.50;99.90;;;;;;5054225;28;20526;-87
2022/07/10 11:06:46;;;;;;;3.55;2.10;;;18.40;99.90;;;;;;5036985;28;20049;-87
2022/07/10 11:09:41;;;;;;;2.90;2.17;;;18.30;99.90;;;;;;5053225;28;20040;-87
2022/07/10 11:12:12;;;;;;;3.72;2.05;;;18.40;99.90;;;;;;5049809;28;20616;-86
2022/07/10 11:14:40;;;;;;;6.00;2.03;;;18.60;99.90;;;;;;5033840;28;20032;-87
2022/07/10 11:17:06;;;;;;;3.55;1.70;;;19.00;99.90;;;;;;5067247;28;20048;-87
2022/07/10 11:19:34;;;;;;;3.80;2.08;;;19.20;99.90;;;;;;5067718;28;20040;-87
2022/07/10 11:22:43;;;;;;;3.40;1.80;;;19.50;99.90;;;;;;5037391;28;20032;-88
2022/07/10 11:25:34;;;;;;;6.10;1.95;;;19.80;99.90;;;;;;5063230;28;20620;-86
2022/07/10 11:28:04;;;;;;;4.30;1.95;;;20.00;99.90;;;;;;5052112;28;20037;-88
2022/07/10 11:30:46;;;;;;;3.80;1.80;;;20.10;99.90;;;;;;5049855;28;20037;-87
2022/07/10 11:33:12;;;;;;;6.30;2.05;;;20.20;99.90;;;;;;5047006;28;20031;-87
2022/07/10 11:35:40;;;;;;;2.75;1.60;;;20.30;99.90;;;;;;5023088;28;20036;-87
2022/07/10 11:38:05;;;;;;;2.70;1.65;;;20.40;99.90;;;;;;5044022;28;20091;-87
2022/07/10 11:40:36;;;;;;;4.25;1.63;;;20.60;99.90;;;;;;5051626;28;20060;-88
2022/07/10 11:43:04;;;;;;;6.70;2.00;;;20.50;99.90;;;;;;5042788;28;20047;-87
2022/07/10 11:45:36;;;;;;;3.63;1.73;;;20.60;99.90;;;;;;5027761;28;20040;-86
2022/07/10 11:48:03;;;;;;;2.37;1.60;;;20.50;99.90;;;;;;5033982;28;20076;-87
2022/07/10 11:50:36;;;;;;;3.22;1.80;;;20.30;99.90;;;;;;5031089;28;20067;-87
2022/07/10 11:53:03;;;;;;;4.00;1.63;;;20.00;99.90;;;;;;5054391;28;20511;-87
2022/07/10 11:55:30;;;;;;;4.03;1.77;;;19.70;99.90;;;;;;5059136;28;20476;-87
2022/07/10 11:57:56;;;;;;;2.60;1.40;;;19.50;99.90;;;;;;5040404;28;20032;-86
2022/07/10 12:00:30;;;;;;;4.47;1.95;;;19.50;99.90;;;;;;5058191;28;20039;-86
2022/07/10 12:02:56;;;;;;;;;;;19.80;99.90;;;;;;5045605;28;20039;-88
2022/07/10 12:05:40;;;;;;;2.78;1.55;;;20.10;99.90;;;;;;5086883;28;19967;-87
2022/07/10 12:08:06;;;;;;;3.35;1.52;;;20.30;99.90;;;;;;5061741;28;20080;-88
2022/07/10 12:10:35;;;;;;;3.67;1.40;;;20.40;99.90;;;;;;5035020;28;20048;-88
2022/07/10 12:13:15;;;;;;;2.78;1.80;;;20.30;99.90;;;;;;5064032;28;20064;-87
2022/07/10 12:15:43;;;;;;;2.97;1.58;;;20.20;99.90;;;;;;5072306;28;20072;-87
2022/07/10 12:18:18;;;;;;;2.03;1.48;;;19.90;99.90;;;;;;5075740;28;20029;-88
2022/07/10 12:20:47;;;;;;;1.75;1.20;;;19.50;99.90;;;;;;5076754;28;20047;-88
2022/07/10 12:23:17;;;;;;;4.72;1.95;;;19.20;99.90;;;;;;5056908;28;20162;-87
2022/07/10 12:28:58;;;;;;;4.63;2.03;;;18.90;99.90;;;;;;5040457;23;20123;-33
2022/07/10 12:31:29;;;;;;;2.50;1.80;;;19.10;99.90;;;;;;5022131;28;20496;-34
2022/07/10 12:33:57;;;;;;;2.28;1.40;;;19.40;99.90;;;;;;5023177;28;20034;-32
2022/07/10 12:36:24;;;;;;;3.63;1.95;;;19.50;99.90;;;;;;5027297;28;20044;-34
2022/07/10 12:39:00;;;;;;;4.55;1.50;;;19.60;99.90;;;;;;5042858;28;20117;-32
2022/07/10 12:41:26;;;;;;;4.07;1.80;;;19.40;99.90;;;;;;5042221;28;20064;-32
2022/07/10 12:43:53;;;;;;;5.47;2.10;;;19.00;99.90;;;;;;5043935;28;20056;-33
2022/07/10 12:46:21;;;;;;;4.10;2.33;;;18.80;99.90;;;;;;5042929;28;20542;-34
2022/07/10 12:49:09;;;;;;;3.97;2.20;;;18.60;99.90;;;;;;5043133;28;20041;-33
2022/07/10 12:51:49;;;;;;;6.25;3.08;;;18.70;99.90;;;;;;5033241;28;20044;-33
2022/07/10 12:54:35;;;;;;;6.93;2.33;;;18.90;99.90;;;;;;5044308;28;20053;-33
2022/07/10 12:57:04;;;;;;;5.25;2.70;;;18.90;99.90;;;;;;5040692;28;20098;-33
2022/07/10 12:59:36;;;;;;;4.88;2.15;;;18.80;99.90;;;;;;5040490;28;20029;-32
2022/07/10 13:02:18;;;;;;;5.22;2.40;;;18.80;99.90;;;;;;5033116;28;20033;-31
2022/07/10 13:04:55;;;;;;;4.10;2.00;;;18.80;99.90;;;;;;5037854;28;20486;-32